Latest Coastal Weather Observations for Smithton

IDV60701

Issued at 1:35 pm EST Wednesday 17 September 2014 (issued every 10 minutes, with the page automatically refreshed every 10 minutes)

About coastal observations | Map of coastal stations | Coastal observations for VIC | Marine services | Other Formats
Station Details ID: 091292 Name: SMITHTON AERODROME Lat: -40.83 Lon: 145.08 Height: 7.5 m
Data from the previous 72 hours. | See also: Recent months at Smithton
Date/Time
EST
Temp

°C
Wind Pressure Rain
since 9am
mm
Weather Cloud Vis
km
Sea
Height
m
Swell
Dir
 
Speed
knots
Gust
knots
hPa Trend Height
m
Period
s
Dir
17/01:34pm 8.6 WSW 17 30 1007.9 - 4.0 - - - - - - -
17/01:30pm 8.2 SW 16 22 1008.0 - 4.0 - - - - - - -
17/01:00pm 8.7 SW 16 30 1008.2 - 3.8 - - - - - - -
17/12:52pm 6.7 SW 20 30 1008.3 - 3.8 - - - - - - -
17/12:30pm 8.2 SW 13 22 1008.3 - 2.8 - - - - - - -
17/12:03pm 7.7 WSW 15 25 1008.5 - 2.8 - - - - - - -
17/12:00pm 6.8 WSW 13 18 1008.5 - 2.8 - - - - - - -
17/11:30am 7.4 WSW 16 22 1008.6 - 1.8 - - - - - - -
17/11:00am 8.2 WSW 13 17 1008.5 - 1.0 - - - - - - -
17/10:38am 6.0 SW 19 42 1008.4 - 1.0 - - - - - - -
17/10:34am 6.9 WSW 31 42 1008.6 - 0.4 - - - - - - -
17/10:33am 7.7 WSW 33 42 1008.7 - 0.2 - - - - - - -
17/10:31am 10.3 WSW 18 38 1008.1 - 0.0 - - - - - - -
17/10:30am 10.6 WSW 17 23 1008.0 - 0.0 - - - - - - -
17/10:00am 10.4 SW 23 29 1007.9 - 0.0 - - - - - - -
17/09:57am 10.5 SW 23 29 1007.9 - 0.0 - - - - - - -
17/09:51am 10.5 W 16 26 1008.0 - 0.0 - - - - - - -
17/09:30am 10.0 WSW 14 19 1007.8 - 0.0 - - - - - - -
17/09:00am 8.5 WSW 16 24 1008.1 - 10.2 - - - - - - -
17/08:30am 8.3 SW 15 21 1008.0 - 10.0 - - - - - - -
17/08:18am 8.1 WSW 18 28 1008.2 - 10.0 - - - - - - -
17/08:00am 8.5 WSW 13 23 1008.1 - 9.0 - - - - - - -
17/07:30am 8.5 W 11 15 1007.7 - 8.6 - - - - - - -
17/07:00am 7.5 W 6 8 1007.5 - 8.4 - - - - - - -
17/06:30am 6.1 WSW 3 4 1007.7 - 8.2 - - - - - - -
17/06:00am 6.0 NW 3 8 1008.0 - 8.0 - - - - - - -
17/05:30am 5.9 NW 4 4 1007.9 - 8.0 - - - - - - -
17/05:00am 7.0 NW 3 3 1007.9 - 8.0 - - - - - - -
17/04:30am 7.5 NW 3 4 1008.0 - 8.0 - - - - - - -
17/04:00am 7.3 CALM 0 0 1008.2 - 8.0 - - - - - - -
17/03:30am 7.4 NW 4 6 1008.4 - 8.0 - - - - - - -
17/03:00am 6.5 CALM 0 0 1008.6 - 7.8 - - - - - - -
17/02:30am 6.4 NW 1 4 1008.8 - 7.8 - - - - - - -
17/02:00am 4.4 CALM 0 0 1009.1 - 7.6 - - - - - - -
17/01:30am 3.9 CALM 0 0 1009.5 - 7.6 - - - - - - -
17/01:00am 5.6 WSW 5 7 1009.8 - 7.6 - - - - - - -
17/12:30am 5.0 WSW 3 4 1009.9 - 7.6 - - - - - - -
17/12:00am 5.1 WSW 0 0 1010.1 - 7.6 - - - - - - -
 
Date/Time
EST
Temp

°C
Wind Pressure Rain
since 9am
mm
Weather Cloud Vis
km
Sea
Height
m
Swell
Dir
 
Speed
knots
Gust
knots
hPa Trend Height
m
Period
s
Dir
16/11:30pm 5.0 CALM 0 0 1010.3 - 7.6 - - - - - - -
16/11:00pm 4.9 CALM 0 0 1010.5 - 7.6 - - - - - - -
16/10:30pm 5.6 CALM 0 0 1010.5 - 7.6 - - - - - - -
16/10:00pm 6.9 CALM 0 0 1011.0 - 7.6 - - - - - - -
16/09:30pm 7.6 CALM 0 0 1011.1 - 7.6 - - - - - - -
16/09:00pm 8.4 CALM 0 0 1011.1 - 7.6 - - - - - - -
16/08:30pm 9.3 CALM 0 0 1011.1 - 7.6 - - - - - - -
16/08:00pm 9.9 WSW 5 6 1011.2 - 7.6 - - - - - - -
16/07:30pm 10.2 WSW 6 7 1011.2 - 7.6 - - - - - - -
16/07:00pm 10.5 WNW 6 7 1011.0 - 7.6 - - - - - - -
16/06:30pm 10.5 NW 6 7 1010.8 - 7.6 - - - - - - -
16/06:00pm 10.9 NW 7 8 1010.5 - 7.6 - - - - - - -
16/05:30pm 11.8 WNW 6 9 1010.5 - 7.6 - - - - - - -
16/05:00pm 12.1 W 4 5 1010.3 - 7.6 - - - - - - -
16/04:30pm 12.5 W 6 8 1010.3 - 7.6 - - - - - - -
16/04:00pm 12.0 SSE 4 5 1010.1 - 7.6 - - - - - - -
16/03:30pm 12.5 SE 4 6 1010.0 - 7.6 - - - - - - -
16/03:00pm 12.1 SE 7 9 1010.1 - 7.6 - - - - - - -
16/02:30pm 12.4 ESE 8 11 1009.9 - 7.6 - - - - - - -
16/02:00pm 10.7 ESE 11 15 1010.0 - 7.6 - - - - - - -
16/01:30pm 10.1 ESE 11 14 1010.2 - 7.6 - - - - - - -
16/01:00pm 9.3 ESE 10 14 1010.5 - 7.4 - - - - - - -
16/12:30pm 9.0 E 8 12 1011.0 - 7.2 - - - - - - -
16/12:00pm 8.9 E 7 9 1011.6 - 6.4 - - - - - - -
16/11:30am 8.9 ESE 7 10 1011.6 - 5.0 - - - - - - -
16/11:00am 8.9 ESE 7 11 1012.1 - 3.2 - - - - - - -
16/10:30am 8.8 ESE 8 10 1012.3 - 2.2 - - - - - - -
16/10:00am 8.9 SSE 8 11 1012.5 - 1.2 - - - - - - -
16/09:30am 8.9 ESE 8 11 1012.5 - 0.6 - - - - - - -
16/09:00am 8.8 SE 8 10 1012.5 - 4.0 - - - - - - -
16/08:30am 8.8 SE 6 10 1012.5 - 3.6 - - - - - - -
16/08:00am 8.6 ESE 7 11 1012.4 - 3.4 - - - - - - -
16/07:30am 8.7 ESE 8 12 1012.2 - 3.2 - - - - - - -
16/07:00am 8.7 ESE 9 12 1012.1 - 2.8 - - - - - - -
16/06:30am 8.8 ESE 8 12 1011.9 - 2.4 - - - - - - -
16/06:00am 8.9 ESE 9 12 1011.8 - 2.4 - - - - - - -
16/05:30am 9.1 ESE 9 13 1012.0 - 2.4 - - - - - - -
16/05:00am 9.1 ESE 9 14 1012.1 - 2.4 - - - - - - -
16/04:30am 9.3 ESE 10 15 1012.0 - 2.4 - - - - - - -
16/04:00am 9.5 ESE 9 14 1012.1 - 2.2 - - - - - - -
16/03:30am 9.9 ESE 10 13 1012.2 - 2.2 - - - - - - -
16/03:00am 10.0 E 9 14 1012.3 - 2.0 - - - - - - -
16/02:30am 10.4 E 10 13 1012.6 - 1.8 - - - - - - -
16/02:00am 10.7 E 9 13 1012.9 - 1.8 - - - - - - -
16/01:30am 10.9 E 11 16 1013.2 - 1.8 - - - - - - -
16/01:00am 11.0 ENE 10 14 1013.6 - 1.8 - - - - - - -
16/12:30am 10.9 ENE 8 11 1013.7 - 1.8 - - - - - - -
16/12:00am 10.7 E 10 14 1013.9 - 1.8 - - - - - - -
 
Date/Time
EST
Temp

°C
Wind Pressure Rain
since 9am
mm
Weather Cloud Vis
km
Sea
Height
m
Swell
Dir
 
Speed
knots
Gust
knots
hPa Trend Height
m
Period
s
Dir
15/11:30pm 10.8 ENE 10 13 1014.1 - 1.6 - - - - - - -
15/11:00pm 10.9 E 10 12 1014.4 - 1.0 - - - - - - -
15/10:30pm 11.0 E 11 16 1014.7 - 1.0 - - - - - - -
15/10:00pm 10.9 ENE 11 16 1014.7 - 1.0 - - - - - - -
15/09:30pm 10.9 E 12 17 1014.4 - 0.8 - - - - - - -
15/09:00pm 10.8 E 12 16 1014.4 - 0.6 - - - - - - -
15/08:30pm 11.1 E 10 13 1014.9 - 0.2 - - - - - - -
15/08:00pm 11.1 E 10 15 1015.0 - 0.0 - - - - - - -
15/07:30pm 10.8 E 7 14 1015.0 - 0.0 - - - - - - -
15/07:00pm 10.5 E 7 9 1014.9 - 0.0 - - - - - - -
15/06:30pm 10.6 E 9 12 1014.9 - 0.0 - - - - - - -
15/06:00pm 10.6 E 9 12 1015.0 - 0.0 - - - - - - -
15/05:30pm 10.8 E 10 14 1014.8 - 0.0 - - - - - - -
15/05:00pm 11.1 E 11 16 1014.5 - 0.0 - - - - - - -
15/04:30pm 11.5 E 13 18 1014.6 - 0.0 - - - - - - -
15/04:00pm 12.0 E 13 19 1014.9 - 0.0 - - - - - - -
15/03:30pm 12.1 E 14 19 1014.9 - 0.0 - - - - - - -
15/03:00pm 12.2 E 15 21 1015.1 - 0.0 - - - - - - -
15/02:30pm 12.6 E 15 19 1015.3 - 0.0 - - - - - - -
15/02:00pm 12.9 E 15 20 1015.3 - 0.0 - - - - - - -
15/01:30pm 14.1 ENE 16 23 1015.8 - 0.0 - - - - - - -
15/01:00pm 14.3 E 16 22 1015.9 - 0.0 - - - - - - -
15/12:30pm 13.1 E 17 22 1016.3 - 0.0 - - - - - - -
15/12:00pm 13.8 E 14 19 1016.6 - 0.0 - - - - - - -
15/11:30am 13.5 E 15 18 1017.0 - 0.0 - - - - - - -
15/11:00am 13.4 E 13 17 1017.2 - 0.0 - - - - - - -
15/10:30am 12.7 E 14 21 1017.7 - 0.0 - - - - - - -
15/10:00am 12.6 ENE 10 13 1017.6 - 0.0 - - - - - - -
15/09:30am 9.5 S 5 7 1017.9 - 0.0 - - - - - - -
15/09:00am 8.1 S 5 6 1018.3 - 0.0 - - - - - - -
15/08:30am 6.3 S 5 7 1018.5 - 0.0 - - - - - - -
15/08:00am 4.4 S 7 7 1018.3 - 0.0 - - - - - - -
15/07:30am 3.2 SSW 6 9 1018.2 - 0.0 - - - - - - -
15/07:00am 1.7 S 9 10 1017.9 - 0.0 - - - - - - -
15/06:30am 2.1 S 8 9 1017.7 - 0.0 - - - - - - -
15/06:00am 0.9 S 5 6 1017.9 - 0.0 - - - - - - -
15/05:30am 1.5 S 5 7 1017.6 - 0.0 - - - - - - -
15/05:00am 1.5 S 6 7 1017.4 - 0.0 - - - - - - -
15/04:30am 0.3 S 6 7 1017.4 - 0.0 - - - - - - -
15/04:00am 0.6 S 6 7 1017.6 - 0.0 - - - - - - -
15/03:30am 1.8 S 8 9 1017.7 - 0.0 - - - - - - -
15/03:00am 2.4 S 8 9 1017.8 - 0.0 - - - - - - -
15/02:30am 2.7 S 6 8 1018.1 - 0.0 - - - - - - -
15/02:00am 1.4 S 6 7 1018.6 - 0.0 - - - - - - -
15/01:30am 1.7 S 7 8 1018.8 - 0.0 - - - - - - -
15/01:00am 3.4 S 7 8 1019.2 - 0.0 - - - - - - -
15/12:30am 1.5 SSW 8 9 1019.1 - 0.0 - - - - - - -
15/12:00am 2.7 SSW 4 6 1019.5 - 0.0 - - - - - - -
 
Date/Time
EST
Temp

°C
Wind Pressure Rain
since 9am
mm
Weather Cloud Vis
km
Sea
Height
m
Swell
Dir
 
Speed
knots
Gust
knots
hPa Trend Height
m
Period
s
Dir
14/11:30pm 1.5 SSW 6 7 1019.5 - 0.0 - - - - - - -
14/11:00pm 3.3 SSW 4 5 1019.6 - 0.0 - - - - - - -
14/10:30pm 3.2 SSW 3 4 1019.8 - 0.0 - - - - - - -
14/10:00pm 3.8 SSW 4 5 1019.9 - 0.0 - - - - - - -
14/09:30pm 5.0 SSW 3 4 1020.0 - 0.0 - - - - - - -
14/09:00pm 6.1 SSW 5 6 1019.8 - 0.0 - - - - - - -
14/08:30pm 5.9 SSW 5 6 1019.9 - 0.0 - - - - - - -
14/08:00pm 6.7 SSW 6 6 1019.6 - 0.0 - - - - - - -
14/07:30pm 6.1 WSW 5 7 1019.3 - 0.0 - - - - - - -
14/07:00pm 6.3 SW 6 8 1019.0 - 0.0 - - - - - - -
14/06:30pm 8.0 SW 7 8 1018.6 - 0.0 - - - - - - -
14/06:00pm 10.2 SW 10 13 1018.4 - 0.0 - - - - - - -
14/05:30pm 11.5 SW 11 14 1018.2 - 0.0 - - - - - - -
14/05:00pm 12.7 SSW 12 15 1018.0 - 0.0 - - - - - - -
14/04:30pm 13.6 SSW 12 15 1017.9 - 0.0 - - - - - - -
14/04:00pm 14.4 SSW 14 17 1017.8 - 0.0 - - - - - - -
14/03:30pm 14.5 SSW 14 19 1017.8 - 0.0 - - - - - - -
14/03:00pm 15.2 SSW 14 18 1017.6 - 0.0 - - - - - - -
14/02:30pm 15.1 SSW 16 21 1017.8 - 0.0 - - - - - - -
14/02:00pm 15.7 SW 15 21 1017.9 - 0.0 - - - - - - -

Other Formats:

Comma delimited format used in spreadsheet applications
http://www.bom.gov.au/fwo/IDV60701/IDV60701.94953.axf

JavaScript Object Notation format (JSON) in row-major order
http://www.bom.gov.au/fwo/IDV60701/IDV60701.94953.json